createdAt,value
2019-02-18T00:01:28.860Z,53.77
2019-02-18T00:03:58.326Z,59.93
2019-02-18T00:06:27.855Z,68.90
2019-02-18T00:08:57.393Z,65.57
2019-02-18T00:11:29.854Z,63.13
2019-02-18T00:13:59.322Z,65.53
2019-02-18T00:16:28.959Z,65.93
2019-02-18T00:18:58.449Z,65.03
2019-02-18T00:21:27.933Z,66.70
2019-02-18T00:23:57.414Z,65.00
2019-02-18T00:26:26.870Z,69.33
2019-02-18T00:28:56.298Z,141.30
2019-02-18T00:31:25.799Z,178.00
2019-02-18T00:33:55.227Z,189.80
2019-02-18T00:36:24.546Z,237.40
2019-02-18T00:38:53.925Z,148.10
2019-02-18T00:41:23.297Z,115.27
2019-02-18T00:43:52.711Z,128.10
2019-02-18T00:46:22.034Z,113.60
2019-02-18T00:48:51.422Z,137.90
2019-02-18T00:51:20.788Z,103.27
2019-02-18T00:53:50.254Z,112.07
2019-02-18T00:56:19.650Z,119.30
2019-02-18T00:58:48.994Z,99.77
2019-02-18T01:01:18.426Z,123.00
2019-02-18T01:03:47.829Z,89.10
2019-02-18T01:06:17.205Z,89.63
2019-02-18T01:08:46.658Z,92.73
2019-02-18T01:11:16.101Z,103.20
2019-02-18T01:13:45.462Z,97.07
2019-02-18T01:16:14.796Z,74.77
2019-02-18T01:18:44.180Z,106.07
2019-02-18T01:21:13.634Z,65.70
2019-02-18T01:23:42.981Z,74.43
2019-02-18T01:26:12.470Z,66.40
2019-02-18T01:28:41.906Z,90.27
2019-02-18T01:31:11.356Z,75.90
2019-02-18T01:33:40.814Z,62.10
2019-02-18T01:36:10.293Z,66.63
2019-02-18T01:38:39.813Z,58.13
2019-02-18T01:41:09.291Z,60.83
2019-02-18T01:43:38.784Z,69.63
2019-02-18T01:46:08.358Z,61.83
2019-02-18T01:48:37.975Z,62.30
2019-02-18T01:51:07.454Z,60.97
2019-02-18T01:53:37.044Z,59.20
2019-02-18T01:56:06.514Z,60.10
2019-02-18T01:58:35.959Z,59.70
2019-02-18T02:01:05.646Z,59.50
2019-02-18T02:03:35.049Z,69.80
2019-02-18T02:06:04.514Z,57.93
2019-02-18T02:08:34.071Z,56.83
2019-02-18T02:11:03.579Z,56.23
2019-02-18T02:13:34.587Z,55.83
2019-02-18T02:16:06.324Z,56.10
2019-02-18T02:18:35.826Z,54.97
2019-02-18T02:21:05.329Z,53.97
2019-02-18T02:23:34.844Z,51.03
2019-02-18T02:26:04.331Z,49.90
2019-02-18T02:28:33.807Z,45.77
2019-02-18T02:31:03.281Z,46.70
2019-02-18T02:33:32.658Z,42.97
2019-02-18T02:36:02.131Z,43.23
2019-02-18T02:38:31.475Z,44.40
2019-02-18T02:41:00.909Z,42.50
2019-02-18T02:43:30.242Z,42.13
2019-02-18T02:45:59.700Z,40.50
2019-02-18T02:48:29.123Z,41.60
2019-02-18T02:50:58.583Z,40.73
2019-02-18T02:53:27.934Z,39.03
2019-02-18T02:55:57.397Z,38.43
2019-02-18T02:58:26.785Z,39.67
2019-02-18T03:00:56.358Z,36.47
2019-02-18T03:03:25.761Z,37.40
2019-02-18T03:05:55.222Z,41.67
2019-02-18T03:08:24.631Z,38.20
2019-02-18T03:10:54.020Z,38.20
2019-02-18T03:13:23.409Z,39.13
2019-02-18T03:15:52.872Z,39.43
2019-02-18T03:18:22.315Z,39.43
2019-02-18T03:20:51.691Z,38.27
2019-02-18T03:23:21.024Z,36.60
2019-02-18T03:25:52.197Z,38.53
2019-02-18T03:29:04.720Z,38.40
2019-02-18T03:31:34.226Z,36.43
2019-02-18T03:34:10.840Z,36.83
2019-02-18T03:36:40.260Z,36.33
2019-02-18T03:39:09.618Z,35.40
2019-02-18T03:41:40.985Z,35.20
2019-02-18T03:44:10.126Z,34.33
2019-02-18T03:46:39.641Z,34.53
2019-02-18T03:49:09.014Z,35.07
2019-02-18T03:51:38.488Z,34.93
2019-02-18T03:54:08.009Z,34.20
2019-02-18T03:56:37.490Z,33.50
2019-02-18T03:59:06.989Z,32.73
2019-02-18T04:01:36.478Z,29.57
2019-02-18T04:04:05.939Z,34.47
2019-02-18T04:06:35.410Z,35.03
2019-02-18T04:09:06.082Z,35.23
2019-02-18T04:11:35.646Z,34.20
2019-02-18T04:14:05.430Z,34.23
2019-02-18T04:16:34.897Z,32.57
2019-02-18T04:19:04.522Z,31.87
2019-02-18T04:21:34.122Z,33.17
2019-02-18T04:24:03.669Z,32.07
2019-02-18T04:26:33.128Z,30.00
2019-02-18T04:29:02.631Z,31.13
2019-02-18T04:31:32.151Z,31.80
2019-02-18T04:34:01.597Z,30.87
2019-02-18T04:36:31.055Z,30.33
2019-02-18T04:39:00.538Z,29.73
2019-02-18T04:41:29.900Z,29.67
2019-02-18T04:43:59.240Z,30.00
2019-02-18T04:46:29.008Z,30.53
2019-02-18T04:48:58.631Z,29.10
2019-02-18T04:51:28.051Z,27.37
2019-02-18T04:53:57.624Z,27.90
2019-02-18T04:56:27.140Z,28.20
2019-02-18T04:58:56.729Z,28.43
2019-02-18T05:01:26.301Z,30.27
2019-02-18T05:03:55.825Z,29.60
2019-02-18T05:06:25.598Z,28.93
2019-02-18T05:09:05.092Z,27.57
2019-02-18T05:11:26.384Z,28.77
2019-02-18T05:13:55.912Z,28.40
2019-02-18T05:16:25.412Z,27.20
2019-02-18T05:18:54.918Z,27.87
2019-02-18T05:21:24.301Z,27.47
2019-02-18T05:23:53.809Z,26.93
2019-02-18T05:26:23.232Z,27.30
2019-02-18T05:28:52.640Z,28.13
2019-02-18T05:31:22.047Z,28.17
2019-02-18T05:33:51.605Z,27.53
2019-02-18T05:36:21.190Z,28.53
2019-02-18T05:38:50.763Z,29.53
2019-02-18T05:41:20.329Z,29.83
2019-02-18T05:43:50.032Z,29.53
2019-02-18T05:46:19.606Z,28.17
2019-02-18T05:48:49.177Z,29.00
2019-02-18T05:51:18.730Z,28.10
2019-02-18T05:53:48.353Z,29.03
2019-02-18T05:56:18.878Z,26.60
2019-02-18T05:58:48.438Z,27.40
2019-02-18T06:01:19.585Z,27.90
2019-02-18T06:03:49.122Z,27.23
2019-02-18T06:06:18.736Z,27.63
2019-02-18T06:08:48.225Z,26.70
2019-02-18T06:11:17.754Z,30.55
2019-02-18T06:13:47.183Z,28.50
2019-02-18T06:16:16.688Z,28.20
2019-02-18T06:18:46.117Z,27.77
2019-02-18T06:21:15.705Z,28.57
2019-02-18T06:23:45.210Z,29.00
2019-02-18T06:26:23.510Z,29.60
2019-02-18T06:28:52.974Z,29.90
2019-02-18T06:31:22.558Z,29.57
2019-02-18T06:33:52.029Z,31.63
2019-02-18T06:36:23.801Z,30.40
2019-02-18T06:38:52.646Z,31.07
2019-02-18T06:41:22.338Z,30.07
2019-02-18T06:43:51.905Z,29.83
2019-02-18T06:46:51.193Z,30.00
2019-02-18T06:49:33.153Z,30.93
2019-02-18T06:52:14.137Z,30.87
2019-02-18T06:55:00.294Z,29.80
2019-02-18T06:58:00.755Z,30.70
2019-02-18T07:03:50.785Z,30.90
2019-02-18T07:06:51.285Z,32.03
2019-02-18T07:09:51.651Z,35.53
2019-02-18T07:12:38.886Z,34.13
2019-02-18T07:15:20.404Z,46.70
2019-02-18T07:18:01.056Z,48.77
2019-02-18T07:20:42.661Z,46.33
2019-02-18T07:23:24.082Z,47.80
2019-02-18T07:26:05.164Z,44.50
2019-02-18T07:28:45.722Z,50.70
2019-02-18T07:31:31.777Z,48.00
2019-02-18T07:34:12.701Z,48.10
2019-02-18T07:36:54.036Z,44.70
2019-02-18T07:39:35.212Z,44.37
2019-02-18T07:42:16.507Z,37.43
2019-02-18T07:45:00.661Z,43.13
2019-02-18T07:47:41.317Z,39.80
2019-02-18T07:53:07.144Z,37.37
2019-02-18T07:55:48.032Z,38.97
2019-02-18T07:58:29.420Z,37.80
2019-02-18T08:01:10.649Z,37.90
2019-02-18T08:03:51.393Z,36.27
2019-02-18T08:06:32.373Z,35.47
2019-02-18T08:09:13.857Z,32.97
2019-02-18T08:11:55.596Z,26.87
2019-02-18T08:14:37.357Z,25.60
2019-02-18T08:17:18.204Z,26.17
2019-02-18T08:19:59.754Z,24.97
2019-02-18T08:22:40.979Z,26.70
2019-02-18T08:25:25.405Z,25.03
2019-02-18T08:28:09.146Z,27.37
2019-02-18T08:30:56.103Z,28.20
2019-02-18T08:33:43.116Z,24.70
2019-02-18T08:36:24.158Z,24.73
2019-02-18T08:39:05.172Z,23.93
2019-02-18T08:41:46.511Z,24.27
2019-02-18T08:44:29.386Z,24.37
2019-02-18T08:47:13.667Z,24.47
2019-02-18T08:49:55.118Z,25.53
2019-02-18T08:52:37.341Z,28.83
2019-02-18T08:55:19.699Z,28.47
2019-02-18T08:58:05.016Z,30.03
2019-02-18T09:00:45.822Z,31.57
2019-02-18T09:03:29.826Z,31.70
2019-02-18T09:06:09.435Z,28.43
2019-02-18T09:08:57.840Z,34.37
2019-02-18T09:11:40.068Z,37.33
2019-02-18T09:14:19.626Z,38.67
2019-02-18T09:17:01.000Z,39.23
2019-02-18T09:19:41.642Z,39.60
2019-02-18T09:22:49.944Z,39.57
2019-02-18T09:28:44.625Z,42.57
2019-02-18T09:34:08.394Z,43.60
2019-02-18T09:37:08.883Z,50.33
2019-02-18T09:39:49.785Z,49.90
2019-02-18T09:42:31.254Z,48.60
2019-02-18T09:45:14.885Z,54.97
2019-02-18T09:47:56.434Z,58.30
2019-02-18T09:50:38.597Z,55.83
2019-02-18T09:53:19.700Z,56.60
2019-02-18T09:56:01.423Z,58.27
2019-02-18T09:58:42.083Z,63.60
2019-02-18T10:01:23.126Z,60.63
2019-02-18T10:04:04.426Z,59.47
2019-02-18T10:06:46.037Z,59.83
2019-02-18T10:09:26.921Z,62.20
2019-02-18T10:12:18.360Z,64.23
2019-02-18T10:14:57.095Z,61.83
2019-02-18T10:20:24.297Z,60.83
2019-02-18T10:23:04.972Z,59.10
2019-02-18T10:28:33.985Z,63.53
2019-02-18T10:34:35.978Z,67.33
2019-02-18T10:37:23.448Z,66.10
2019-02-18T10:43:32.687Z,67.33
2019-02-18T10:46:17.222Z,66.70
2019-02-18T10:48:57.986Z,66.23
2019-02-18T10:51:39.056Z,61.77
2019-02-18T10:54:08.823Z,61.70
2019-02-18T10:56:57.318Z,59.93
2019-02-18T10:59:26.910Z,61.97
2019-02-18T11:02:16.579Z,62.77
2019-02-18T11:05:42.903Z,60.70
2019-02-18T11:08:23.744Z,62.00
2019-02-18T11:13:50.293Z,58.27
2019-02-18T11:16:30.980Z,56.83
2019-02-18T11:22:04.383Z,59.03
2019-02-18T11:24:45.959Z,58.60
2019-02-18T11:27:27.183Z,60.90
2019-02-18T11:30:08.344Z,58.87
2019-02-18T11:32:52.626Z,57.47
2019-02-18T11:35:33.235Z,52.53
2019-02-18T11:38:22.117Z,51.67
2019-02-18T11:41:03.836Z,52.03
2019-02-18T11:43:44.743Z,48.37
2019-02-18T11:46:25.765Z,47.63
2019-02-18T11:49:10.012Z,49.07
2019-02-18T11:51:51.248Z,50.27
2019-02-18T11:54:33.034Z,49.67
2019-02-18T11:57:14.462Z,50.60
2019-02-18T11:59:55.057Z,54.33
2019-02-18T12:02:36.612Z,54.67
2019-02-18T12:05:18.899Z,49.07
2019-02-18T12:08:00.028Z,50.93
2019-02-18T12:13:23.650Z,48.43
2019-02-18T12:16:04.814Z,49.47
2019-02-18T12:18:46.302Z,48.33
2019-02-18T12:21:27.606Z,47.00
2019-02-18T12:24:08.316Z,47.83
2019-02-18T12:26:49.598Z,47.10
2019-02-18T12:29:31.134Z,46.70
2019-02-18T12:32:10.983Z,45.67
2019-02-18T12:34:51.801Z,42.90
2019-02-18T12:37:33.421Z,44.37
2019-02-18T12:40:17.851Z,44.00
2019-02-18T12:42:58.599Z,43.80
2019-02-18T12:45:39.895Z,34.87
2019-02-18T12:48:21.876Z,38.80
2019-02-18T12:51:02.815Z,36.20
2019-02-18T12:53:46.130Z,39.20
2019-02-18T12:56:26.725Z,45.70
2019-02-18T12:59:07.506Z,39.03
2019-02-18T13:01:48.738Z,43.60
2019-02-18T13:04:31.943Z,46.93
2019-02-18T13:07:11.877Z,47.27
2019-02-18T13:09:53.458Z,44.17
2019-02-18T13:12:34.775Z,42.80
2019-02-18T13:15:19.220Z,49.97
2019-02-18T13:20:42.163Z,47.07
2019-02-18T13:23:23.785Z,48.90
2019-02-18T13:26:05.141Z,47.67
2019-02-18T13:28:47.746Z,48.53
2019-02-18T13:31:29.559Z,47.27
2019-02-18T13:34:11.250Z,47.17
2019-02-18T13:36:52.731Z,47.53
2019-02-18T13:39:33.943Z,52.73
2019-02-18T13:42:15.213Z,50.50
2019-02-18T13:44:56.567Z,51.77
2019-02-18T13:47:38.141Z,49.40
2019-02-18T13:50:19.768Z,49.57
2019-02-18T13:53:01.151Z,48.10
2019-02-18T13:55:42.691Z,47.63
2019-02-18T13:58:12.265Z,49.97
2019-02-18T14:00:53.020Z,50.53
2019-02-18T14:03:34.440Z,47.67
2019-02-18T14:06:22.144Z,50.00
2019-02-18T14:09:03.148Z,47.07
2019-02-18T14:11:44.110Z,44.63
2019-02-18T14:14:25.538Z,44.13
2019-02-18T14:17:07.058Z,48.33
2019-02-18T14:19:48.495Z,50.30
2019-02-18T14:22:29.792Z,48.70
2019-02-18T14:25:13.388Z,47.20
2019-02-18T14:28:07.093Z,50.37
2019-02-18T14:30:48.801Z,48.73
2019-02-18T14:33:30.032Z,50.87
2019-02-18T14:36:11.145Z,47.97
2019-02-18T14:38:52.683Z,47.67
2019-02-18T14:41:34.479Z,48.80
2019-02-18T14:47:05.333Z,48.87
2019-02-18T14:49:46.335Z,49.63
2019-02-18T14:52:40.197Z,51.27
2019-02-18T14:55:22.781Z,48.70
2019-02-18T14:58:03.893Z,49.37
2019-02-18T15:00:45.383Z,49.37
2019-02-18T15:03:32.013Z,48.57
2019-02-18T15:06:20.525Z,47.90
2019-02-18T15:09:25.801Z,49.67
2019-02-18T15:12:19.244Z,48.63
2019-02-18T15:15:00.287Z,48.00
2019-02-18T15:17:41.651Z,49.67
2019-02-18T15:20:11.665Z,48.17
2019-02-18T15:23:20.490Z,52.70
2019-02-18T15:26:03.758Z,54.67
2019-02-18T15:28:33.154Z,58.37
2019-02-18T15:31:21.911Z,53.07
2019-02-18T15:34:10.407Z,55.80
2019-02-18T15:36:53.121Z,59.63
2019-02-18T15:39:36.565Z,63.87
2019-02-18T15:42:22.034Z,60.17
2019-02-18T15:48:01.516Z,66.87
2019-02-18T15:50:36.786Z,64.43
2019-02-18T15:53:24.111Z,66.47
2019-02-18T15:56:09.577Z,63.40
2019-02-18T15:59:09.872Z,75.53
2019-02-18T16:01:52.293Z,71.77
2019-02-18T16:04:32.794Z,71.90
2019-02-18T16:07:14.868Z,82.13
2019-02-18T16:10:05.544Z,77.83
2019-02-18T16:16:01.763Z,75.20
2019-02-18T16:18:42.810Z,74.30
2019-02-18T16:24:29.838Z,74.90
2019-02-18T16:27:21.941Z,73.53
2019-02-18T16:30:18.292Z,75.20
2019-02-18T16:32:59.980Z,77.33
2019-02-18T16:38:43.726Z,77.03
2019-02-18T16:45:09.278Z,79.47
2019-02-18T16:47:58.195Z,81.00
2019-02-18T16:50:41.909Z,79.33
2019-02-18T16:53:24.292Z,91.03
2019-02-18T16:56:03.874Z,86.60
2019-02-18T16:58:54.081Z,94.63
2019-02-18T17:01:38.191Z,87.97
2019-02-18T17:04:20.615Z,88.30
2019-02-18T17:07:02.328Z,88.53
2019-02-18T17:09:45.244Z,87.60
2019-02-18T17:12:26.303Z,85.87
2019-02-18T17:15:07.618Z,92.77
2019-02-18T17:17:49.596Z,92.97
2019-02-18T17:20:30.892Z,93.33
2019-02-18T17:23:27.939Z,90.53
2019-02-18T17:26:08.999Z,85.80
2019-02-18T17:28:53.599Z,86.70
2019-02-18T17:31:33.192Z,84.10
2019-02-18T17:34:42.395Z,84.37
2019-02-18T17:37:23.330Z,81.77
2019-02-18T17:40:07.983Z,81.90
2019-02-18T17:42:49.135Z,82.33
2019-02-18T17:45:30.676Z,83.03
2019-02-18T17:48:11.416Z,80.10
2019-02-18T17:50:52.500Z,79.93
2019-02-18T17:53:33.575Z,80.00
2019-02-18T17:56:15.891Z,73.33
2019-02-18T17:58:56.905Z,76.17
2019-02-18T18:01:51.900Z,71.77
2019-02-18T18:04:32.630Z,71.33
2019-02-18T18:07:20.402Z,70.67
2019-02-18T18:10:03.695Z,69.70
2019-02-18T18:12:45.145Z,63.67
2019-02-18T18:15:27.973Z,63.90
2019-02-18T18:18:13.578Z,63.30
2019-02-18T18:24:03.883Z,63.07
2019-02-18T18:26:47.341Z,55.33
2019-02-18T18:29:28.893Z,67.10
2019-02-18T18:32:11.842Z,64.13
2019-02-18T18:34:54.138Z,53.80
2019-02-18T18:37:35.809Z,54.47
2019-02-18T18:40:17.624Z,61.80
2019-02-18T18:43:00.454Z,46.00
2019-02-18T18:45:45.161Z,49.00
2019-02-18T18:48:31.247Z,37.20
2019-02-18T18:51:14.225Z,37.20
2019-02-18T18:54:02.619Z,34.80
2019-02-18T18:56:46.291Z,34.10
2019-02-18T18:59:32.794Z,35.27
2019-02-18T19:02:14.066Z,37.00
2019-02-18T19:04:55.744Z,48.77
2019-02-18T19:07:37.451Z,40.63
2019-02-18T19:10:19.954Z,47.43
2019-02-18T19:13:03.382Z,39.43
2019-02-18T19:15:49.640Z,39.40
2019-02-18T19:18:27.174Z,40.50
2019-02-18T19:21:09.711Z,39.13
2019-02-18T19:23:51.551Z,38.63
2019-02-18T19:26:32.894Z,41.07
2019-02-18T19:29:15.867Z,38.33
2019-02-18T19:31:57.483Z,36.30
2019-02-18T19:34:37.628Z,37.20
2019-02-18T19:37:26.713Z,74.00
2019-02-18T19:40:10.313Z,93.67
2019-02-18T19:42:51.414Z,67.17
2019-02-18T19:45:35.071Z,82.77
2019-02-18T19:48:16.263Z,68.47
2019-02-18T19:50:46.549Z,115.83
2019-02-18T19:53:36.483Z,128.90
2019-02-18T19:56:26.390Z,86.43
2019-02-18T19:59:07.816Z,90.67
2019-02-18T20:01:52.497Z,57.23
2019-02-18T20:04:34.237Z,49.37
2019-02-18T20:07:26.764Z,41.03
2019-02-18T20:10:11.989Z,57.47
2019-02-18T20:12:55.094Z,37.80
2019-02-18T20:15:38.328Z,60.57
2019-02-18T20:18:19.826Z,35.37
2019-02-18T20:21:06.945Z,55.83
2019-02-18T20:24:09.584Z,75.03
2019-02-18T20:26:51.140Z,55.67
2019-02-18T20:29:32.665Z,50.30
2019-02-18T20:32:13.726Z,54.17
2019-02-18T20:34:55.909Z,61.83
2019-02-18T20:37:43.710Z,78.10
2019-02-18T20:43:27.261Z,54.13
2019-02-18T20:46:14.206Z,46.87
2019-02-18T20:51:38.764Z,58.17
2019-02-18T20:54:27.719Z,46.10
2019-02-18T20:57:09.276Z,84.23
2019-02-18T20:59:51.370Z,76.10
2019-02-18T21:02:32.375Z,70.63
2019-02-18T21:05:13.733Z,73.23
2019-02-18T21:11:30.867Z,67.27
2019-02-18T21:14:16.190Z,71.00
2019-02-18T21:16:57.063Z,58.67
2019-02-18T21:19:39.694Z,45.57
2019-02-18T21:22:27.961Z,53.93
2019-02-18T21:25:19.195Z,73.83
2019-02-18T21:28:00.380Z,87.17
2019-02-18T21:30:46.424Z,68.33
2019-02-18T21:33:29.828Z,83.40
2019-02-18T21:36:11.018Z,76.83
2019-02-18T21:42:00.470Z,78.27
2019-02-18T21:44:42.752Z,99.77
2019-02-18T21:47:24.154Z,94.43
2019-02-18T21:50:09.554Z,77.50
2019-02-18T21:52:51.554Z,107.97
2019-02-18T21:55:34.364Z,91.57
2019-02-18T21:58:17.055Z,119.27
2019-02-18T22:00:59.550Z,127.83
2019-02-18T22:07:01.922Z,95.07
2019-02-18T22:09:59.523Z,105.63
2019-02-18T22:12:41.043Z,112.77
2019-02-18T22:15:22.268Z,129.57
2019-02-18T22:18:03.337Z,124.03
2019-02-18T22:20:48.049Z,145.10
2019-02-18T22:23:28.507Z,132.80
2019-02-18T22:26:17.275Z,133.80
2019-02-18T22:28:58.885Z,132.93
2019-02-18T22:31:39.902Z,132.33
2019-02-18T22:34:23.196Z,190.83
2019-02-18T22:37:04.447Z,185.27
2019-02-18T22:43:07.942Z,199.67
2019-02-18T22:48:51.701Z,191.07
2019-02-18T22:51:32.649Z,196.93
2019-02-18T22:54:17.020Z,282.57
2019-02-18T22:57:00.586Z,178.97
2019-02-18T23:00:02.824Z,188.03
2019-02-18T23:05:53.079Z,162.50
2019-02-18T23:08:34.008Z,175.93
2019-02-18T23:11:18.997Z,172.17
2019-02-18T23:14:05.108Z,158.60
2019-02-18T23:16:50.592Z,211.63
2019-02-18T23:19:32.126Z,229.57
2019-02-18T23:25:36.831Z,216.90
2019-02-18T23:31:21.395Z,212.90
2019-02-18T23:34:18.635Z,257.90
2019-02-18T23:37:04.275Z,294.97
2019-02-18T23:39:46.401Z,203.80
2019-02-18T23:42:29.667Z,270.93
2019-02-18T23:45:11.111Z,223.83
2019-02-18T23:47:55.846Z,248.77
2019-02-18T23:50:41.464Z,267.97
2019-02-18T23:53:23.392Z,274.90
2019-02-18T23:56:04.722Z,237.60
2019-02-18T23:58:45.827Z,194.23
